Time;durP1;ratioP1;P1;durP2;ratioP2;P2;SDS_P1;SDS_P2;PMS_P1;PMS_P2;Temp;Humidity;BMP_temperature;BMP_pressure;BME280_temperature;BME280_humidity;BME280_pressure;Samples;Min_cycle;Max_cycle;Signal;HPM_P1;HPM_P2
2022/08/14 00:01:49;;;;;;;2.00;0.60;;;21.80;1.00;;;;;;4993451;28;20294;-86
2022/08/14 00:04:14;;;;;;;0.93;0.63;;;21.80;1.00;;;;;;4993533;28;20821;-86
2022/08/14 00:06:40;;;;;;;1.13;0.50;;;21.70;1.00;;;;;;4992905;28;20228;-85
2022/08/14 00:09:05;;;;;;;0.77;0.40;;;21.70;99.90;;;;;;4992246;28;20201;-86
2022/08/14 00:11:31;;;;;;;1.17;0.50;;;21.70;1.00;;;;;;4992197;28;20269;-87
2022/08/14 00:13:57;;;;;;;1.57;0.73;;;21.70;1.00;;;;;;4993437;28;20709;-87
2022/08/14 00:16:22;;;;;;;2.93;1.03;;;21.60;1.00;;;;;;4993295;28;20183;-89
2022/08/14 00:18:48;;;;;;;1.50;0.70;;;21.60;82.50;;;;;;4993151;28;20212;-88
2022/08/14 00:21:13;;;;;;;1.20;0.70;;;21.60;1.00;;;;;;4992969;28;20528;-87
2022/08/14 00:23:40;;;;;;;1.20;0.60;;;21.60;99.90;;;;;;4993320;28;20180;-87
2022/08/14 00:26:05;;;;;;;1.97;1.07;;;21.70;99.90;;;;;;4993447;28;20982;-86
2022/08/14 00:28:31;;;;;;;1.73;1.20;;;21.70;99.90;;;;;;4993062;28;20419;-85
2022/08/14 00:30:58;;;;;;;1.00;0.53;;;21.60;99.90;;;;;;4992971;28;20301;-86
2022/08/14 00:33:26;;;;;;;0.80;0.60;;;21.70;99.90;;;;;;4995866;28;20429;-86
2022/08/14 00:35:52;;;;;;;1.00;0.60;;;21.60;95.90;;;;;;4996740;28;20440;-85
2022/08/14 00:38:19;;;;;;;1.33;0.50;;;21.60;99.90;;;;;;4996856;28;21011;-86
2022/08/14 00:40:45;;;;;;;1.80;0.73;;;21.60;1.00;;;;;;4996768;28;21154;-86
2022/08/14 00:43:10;;;;;;;1.53;0.60;;;21.60;99.90;;;;;;4996907;28;20409;-86
2022/08/14 00:45:36;;;;;;;1.13;0.80;;;21.50;1.00;;;;;;4994934;28;20176;-86
2022/08/14 00:48:02;;;;;;;1.10;0.73;;;21.60;99.90;;;;;;4996872;28;20172;-85
2022/08/14 00:50:29;;;;;;;1.77;0.87;;;21.70;99.90;;;;;;4996521;28;20424;-86
2022/08/14 00:52:55;;;;;;;1.33;0.70;;;21.60;99.90;;;;;;5008057;28;20482;-85
2022/08/14 00:55:21;;;;;;;1.60;0.53;;;21.60;99.90;;;;;;5007275;28;20408;-86
2022/08/14 00:58:29;;;;;;;1.10;0.67;;;21.60;99.90;;;;;;5004839;28;20512;-86
2022/08/14 01:00:33;;;;;;;1.30;0.80;;;21.60;99.90;;;;;;5003727;28;20428;-86
2022/08/14 01:02:59;;;;;;;1.30;0.47;;;21.60;1.00;;;;;;4996373;28;20425;-86
2022/08/14 01:05:25;;;;;;;1.73;0.83;;;21.60;1.00;;;;;;4996563;28;20519;-86
2022/08/14 01:07:53;;;;;;;1.40;0.70;;;21.60;99.90;;;;;;4997062;28;20262;-86
2022/08/14 01:10:19;;;;;;;1.30;0.60;;;21.60;99.90;;;;;;4995655;28;20177;-85
2022/08/14 01:12:47;;;;;;;2.53;0.93;;;21.60;99.90;;;;;;4994978;28;20419;-85
2022/08/14 01:15:15;;;;;;;1.00;0.87;;;21.50;99.90;;;;;;4996144;28;20984;-86
2022/08/14 01:23:13;;;;;;;1.63;0.63;;;21.50;1.00;;;;;;4996458;28;20416;-87
2022/08/14 01:25:38;;;;;;;2.90;0.70;;;21.50;99.90;;;;;;4996190;28;20836;-87
2022/08/14 01:28:05;;;;;;;1.03;0.40;;;21.40;99.90;;;;;;4995963;28;20511;-86
2022/08/14 01:30:31;;;;;;;1.30;0.77;;;21.50;1.00;;;;;;4995528;28;20165;-86
2022/08/14 01:32:57;;;;;;;1.60;0.77;;;21.50;37.50;;;;;;4994054;28;20543;-87
2022/08/14 01:35:27;;;;;;;1.27;0.70;;;21.60;99.90;;;;;;4993150;28;20421;-86
2022/08/14 01:37:52;;;;;;;1.20;0.90;;;21.50;99.90;;;;;;4995842;28;20553;-87
2022/08/14 01:40:22;;;;;;;1.50;0.60;;;21.50;1.00;;;;;;4994804;28;20467;-87
2022/08/14 01:42:48;;;;;;;1.00;0.50;;;21.40;1.00;;;;;;4994299;28;20174;-87
2022/08/14 01:45:13;;;;;;;2.43;0.97;;;21.40;18.70;;;;;;4995811;28;20939;-87
2022/08/14 01:47:39;;;;;;;0.93;0.57;;;21.40;99.90;;;;;;4995797;28;20533;-86
2022/08/14 01:50:07;;;;;;;1.60;1.00;;;21.40;99.90;;;;;;4995729;28;20177;-86
2022/08/14 01:52:35;;;;;;;1.57;0.50;;;21.60;99.90;;;;;;4994760;28;20415;-88
2022/08/14 01:55:07;;;;;;;1.10;0.50;;;21.70;99.90;;;;;;4995590;28;20421;-86
2022/08/14 01:57:36;;;;;;;1.17;0.60;;;21.70;1.00;;;;;;4995544;28;20428;-86
2022/08/14 02:00:04;;;;;;;2.30;0.80;;;21.50;15.70;;;;;;4995005;28;20451;-87
2022/08/14 02:02:29;;;;;;;1.50;0.90;;;21.40;99.90;;;;;;4994233;28;20425;-87
2022/08/14 02:04:55;;;;;;;1.00;0.50;;;21.30;99.90;;;;;;4993293;28;20952;-85
2022/08/14 02:07:20;;;;;;;1.10;0.70;;;21.10;99.90;;;;;;4994991;28;20225;-85
2022/08/14 02:09:46;;;;;;;1.23;0.57;;;21.10;99.90;;;;;;4995361;28;20537;-85
2022/08/14 02:12:12;;;;;;;1.33;0.77;;;21.00;1.00;;;;;;4995329;28;20313;-87
2022/08/14 02:14:39;;;;;;;0.80;0.40;;;21.00;1.00;;;;;;4993450;28;20179;-87
2022/08/14 02:17:08;;;;;;;1.47;0.50;;;21.00;1.00;;;;;;4995219;28;20170;-86
2022/08/14 02:19:34;;;;;;;0.90;0.60;;;20.90;1.00;;;;;;4994899;28;20479;-86
2022/08/14 02:22:02;;;;;;;1.00;0.63;;;20.80;1.00;;;;;;4994576;28;20409;-86
2022/08/14 02:24:28;;;;;;;1.53;0.90;;;20.70;1.00;;;;;;4994990;28;20513;-86
2022/08/14 02:26:57;;;;;;;1.07;0.60;;;20.60;1.00;;;;;;4993867;28;20428;-86
2022/08/14 02:29:24;;;;;;;1.47;0.63;;;20.60;1.00;;;;;;4993358;28;20430;-86
2022/08/14 02:31:53;;;;;;;0.97;0.73;;;20.60;1.00;;;;;;4993692;28;20930;-86
2022/08/14 02:34:21;;;;;;;1.00;0.43;;;20.50;1.00;;;;;;4992500;28;20429;-86
2022/08/14 02:36:51;;;;;;;1.70;0.90;;;20.50;1.00;;;;;;4994824;28;20834;-86
2022/08/14 02:39:18;;;;;;;1.37;1.07;;;20.50;1.00;;;;;;4994800;28;20499;-86
2022/08/14 02:41:43;;;;;;;1.07;0.50;;;20.40;1.00;;;;;;4993622;28;20428;-86
2022/08/14 02:44:10;;;;;;;1.60;0.53;;;20.40;1.00;;;;;;4994965;28;20419;-86
2022/08/14 02:46:37;;;;;;;1.27;0.70;;;20.40;1.00;;;;;;4995025;28;20182;-86
2022/08/14 02:49:05;;;;;;;1.63;0.70;;;20.40;1.00;;;;;;4994832;28;20478;-85
2022/08/14 02:51:31;;;;;;;0.80;0.67;;;20.30;1.00;;;;;;4994544;28;20480;-85
2022/08/14 02:53:57;;;;;;;1.23;0.80;;;20.20;3.30;;;;;;4994363;28;20415;-86
2022/08/14 02:56:24;;;;;;;3.07;1.20;;;20.20;12.70;;;;;;5003004;28;20421;-86
2022/08/14 02:58:50;;;;;;;1.23;1.10;;;20.20;1.00;;;;;;5000361;28;20990;-87
2022/08/14 03:01:18;;;;;;;1.27;0.83;;;20.30;1.00;;;;;;4994961;28;20506;-87
2022/08/14 03:03:47;;;;;;;2.07;0.93;;;20.20;1.00;;;;;;4994467;28;20434;-85
2022/08/14 03:06:14;;;;;;;1.40;0.60;;;20.20;1.00;;;;;;4994005;28;20461;-88
2022/08/14 03:08:41;;;;;;;1.03;0.70;;;20.20;16.00;;;;;;4993097;28;20423;-86
2022/08/14 03:11:11;;;;;;;3.57;0.93;;;20.10;54.60;;;;;;4994458;28;20512;-86
2022/08/14 03:13:50;;;;;;;1.20;0.80;;;20.10;28.40;;;;;;4994418;28;20434;-86
2022/08/14 03:16:18;;;;;;;0.93;0.43;;;20.00;91.00;;;;;;4993020;28;20533;-86
2022/08/14 03:18:47;;;;;;;1.17;0.73;;;19.90;73.20;;;;;;4992995;28;20570;-89
2022/08/14 03:21:15;;;;;;;0.93;0.47;;;19.90;99.90;;;;;;4994065;28;20429;-86
2022/08/14 03:23:44;;;;;;;1.13;0.43;;;20.00;99.90;;;;;;4994276;28;20451;-86
2022/08/14 03:26:12;;;;;;;1.13;0.73;;;20.00;99.90;;;;;;4992855;28;20469;-86
2022/08/14 03:28:40;;;;;;;1.40;0.50;;;19.80;99.90;;;;;;4992914;28;20896;-86
2022/08/14 03:31:06;;;;;;;1.20;0.40;;;19.80;99.90;;;;;;4994233;28;20438;-86
2022/08/14 03:33:35;;;;;;;1.40;0.90;;;19.80;99.90;;;;;;4992822;28;20430;-86
2022/08/14 03:36:04;;;;;;;1.63;1.17;;;19.70;99.90;;;;;;4992413;28;20426;-85
2022/08/14 03:38:29;;;;;;;1.23;0.70;;;19.60;99.90;;;;;;4992766;28;20802;-85
2022/08/14 03:40:55;;;;;;;1.40;0.80;;;19.60;99.90;;;;;;4993927;28;20430;-85
2022/08/14 03:43:21;;;;;;;1.20;0.90;;;19.50;99.90;;;;;;4993922;28;20172;-86
2022/08/14 03:45:46;;;;;;;1.30;0.83;;;19.50;99.90;;;;;;4992678;28;20260;-86
2022/08/14 03:48:18;;;;;;;1.20;0.70;;;19.50;99.90;;;;;;4993835;28;20624;-85
2022/08/14 03:50:48;;;;;;;1.30;0.70;;;19.50;99.90;;;;;;4993469;28;20252;-85
2022/08/14 03:53:14;;;;;;;1.20;0.57;;;19.40;99.90;;;;;;4992505;28;20434;-85
2022/08/14 03:55:41;;;;;;;1.50;0.90;;;19.30;99.90;;;;;;4992521;28;20423;-85
2022/08/14 03:58:08;;;;;;;1.63;0.60;;;19.20;99.90;;;;;;4993685;28;20473;-85
2022/08/14 04:00:35;;;;;;;1.80;0.60;;;19.20;99.90;;;;;;4993650;28;20412;-86
2022/08/14 04:03:03;;;;;;;1.90;0.93;;;19.20;99.90;;;;;;4993659;28;20422;-85
2022/08/14 04:05:29;;;;;;;1.67;0.90;;;19.20;99.90;;;;;;4991177;28;20428;-85
2022/08/14 04:07:54;;;;;;;1.43;0.70;;;19.10;99.90;;;;;;4992660;28;20485;-85
2022/08/14 04:10:20;;;;;;;1.10;0.73;;;19.20;99.90;;;;;;4992828;28;20179;-85
2022/08/14 04:12:46;;;;;;;1.83;0.77;;;19.10;99.90;;;;;;4992791;28;20244;-86
2022/08/14 04:15:13;;;;;;;1.47;0.67;;;19.10;99.90;;;;;;4991415;28;20433;-85
2022/08/14 04:17:42;;;;;;;1.30;0.90;;;19.10;99.90;;;;;;4992655;28;20174;-85
2022/08/14 04:20:08;;;;;;;1.33;0.80;;;19.10;99.90;;;;;;4991096;28;20485;-85
2022/08/14 04:22:35;;;;;;;3.50;0.60;;;19.10;99.90;;;;;;4992699;28;20811;-86
2022/08/14 04:25:01;;;;;;;1.30;0.63;;;19.10;99.90;;;;;;4992650;28;20421;-85
2022/08/14 04:27:28;;;;;;;1.47;0.67;;;19.10;99.90;;;;;;4992633;28;20848;-86
2022/08/14 04:29:54;;;;;;;1.27;0.40;;;19.10;99.90;;;;;;4992588;28;20429;-86
2022/08/14 04:32:22;;;;;;;1.70;1.00;;;19.10;99.90;;;;;;4992498;28;20418;-86
2022/08/14 04:34:47;;;;;;;1.80;0.60;;;19.10;99.90;;;;;;4992256;28;20313;-85
2022/08/14 04:45:37;;;;;;;1.50;0.77;;;19.20;99.90;;;;;;4992464;28;20422;-87
2022/08/14 04:48:12;;;;;;;0.97;0.50;;;19.30;99.90;;;;;;4992395;28;20424;-86
2022/08/14 04:50:45;;;;;;;1.73;0.90;;;19.40;99.90;;;;;;4992062;28;20421;-87
2022/08/14 04:53:16;;;;;;;0.90;0.60;;;19.40;99.90;;;;;;4991037;28;20449;-87
2022/08/14 04:55:46;;;;;;;0.80;0.50;;;19.50;99.90;;;;;;4990937;28;20965;-86
2022/08/14 04:58:12;;;;;;;1.60;1.13;;;19.60;99.90;;;;;;4990905;28;21089;-86
2022/08/14 05:00:39;;;;;;;1.90;0.90;;;19.60;99.90;;;;;;4992276;28;20476;-86
2022/08/14 05:03:06;;;;;;;1.53;1.13;;;19.70;99.90;;;;;;4990907;28;20180;-86
2022/08/14 05:05:31;;;;;;;0.80;0.50;;;19.70;99.90;;;;;;4956958;28;1008328;-86
2022/08/14 05:08:07;;;;;;;1.47;0.60;;;19.60;99.90;;;;;;4993098;28;20234;-87
2022/08/14 05:10:34;;;;;;;1.83;0.60;;;19.70;99.90;;;;;;4993117;28;20663;-86
2022/08/14 05:12:59;;;;;;;1.30;0.53;;;19.80;99.90;;;;;;4991677;28;20437;-87
2022/08/14 05:15:28;;;;;;;1.20;1.03;;;19.80;99.90;;;;;;4992985;28;20497;-86
2022/08/14 05:17:54;;;;;;;0.97;0.53;;;19.90;99.90;;;;;;4994755;28;20271;-86
2022/08/14 05:20:20;;;;;;;4.03;0.43;;;20.10;99.90;;;;;;4996057;28;20795;-87
2022/08/14 05:22:45;;;;;;;1.40;0.83;;;20.20;99.90;;;;;;4996534;28;20500;-86
2022/08/14 05:25:11;;;;;;;1.00;0.60;;;20.40;99.90;;;;;;4995140;28;20430;-88
2022/08/14 05:27:37;;;;;;;0.70;0.40;;;20.50;99.90;;;;;;4996420;28;20247;-86
2022/08/14 05:30:04;;;;;;;2.53;0.83;;;20.50;99.90;;;;;;4996393;28;20207;-86
2022/08/14 05:32:30;;;;;;;1.50;0.63;;;20.60;99.90;;;;;;4996168;28;20399;-86
2022/08/14 05:34:57;;;;;;;0.97;0.60;;;20.60;99.90;;;;;;4996017;28;20419;-87
2022/08/14 05:37:23;;;;;;;1.20;0.70;;;20.70;75.10;;;;;;4996195;28;20595;-87
2022/08/14 05:39:49;;;;;;;2.37;1.10;;;21.00;1.20;;;;;;4996130;28;20476;-86
2022/08/14 05:42:15;;;;;;;2.07;0.87;;;21.40;1.00;;;;;;4994725;28;20176;-86
2022/08/14 05:44:41;;;;;;;1.07;0.60;;;21.90;1.00;;;;;;4996061;28;20176;-86
2022/08/14 05:47:06;;;;;;;2.63;0.77;;;22.30;99.90;;;;;;4996009;28;20419;-86
2022/08/14 05:49:32;;;;;;;3.60;0.57;;;22.60;57.20;;;;;;4995586;28;20178;-86
2022/08/14 05:51:57;;;;;;;1.17;0.40;;;22.80;95.70;;;;;;4995956;28;20181;-86
2022/08/14 05:54:24;;;;;;;0.90;0.57;;;23.10;1.00;;;;;;4995824;28;20173;-86
2022/08/14 05:56:49;;;;;;;3.13;1.03;;;23.30;1.00;;;;;;4995623;28;20531;-86
2022/08/14 05:59:15;;;;;;;0.90;0.67;;;23.80;99.90;;;;;;4994387;28;20566;-86
2022/08/14 06:01:40;;;;;;;1.37;0.80;;;24.10;1.00;;;;;;4995691;28;20175;-86
2022/08/14 06:04:06;;;;;;;1.33;0.80;;;24.60;99.90;;;;;;4995762;28;20194;-86
2022/08/14 06:06:32;;;;;;;1.00;0.83;;;25.10;1.00;;;;;;4993861;28;20230;-86
2022/08/14 06:08:57;;;;;;;2.30;0.90;;;25.50;1.00;;;;;;4995542;28;20182;-86
2022/08/14 06:11:23;;;;;;;6.23;1.33;;;25.70;99.90;;;;;;4995517;28;20246;-86
2022/08/14 06:13:48;;;;;;;1.20;0.90;;;26.00;99.90;;;;;;4995523;28;20659;-87
2022/08/14 06:16:16;;;;;;;1.40;0.63;;;26.50;99.90;;;;;;4995372;28;20179;-85
2022/08/14 06:18:41;;;;;;;1.07;0.97;;;27.10;99.90;;;;;;4995440;28;20215;-86
2022/08/14 06:21:07;;;;;;;1.30;0.80;;;27.40;99.90;;;;;;4995020;28;20762;-86
2022/08/14 06:23:33;;;;;;;1.90;0.70;;;27.60;99.90;;;;;;4995302;28;20175;-85
2022/08/14 06:25:58;;;;;;;1.37;0.70;;;28.30;99.90;;;;;;4995339;28;20668;-86
2022/08/14 06:28:25;;;;;;;1.57;0.70;;;28.50;80.30;;;;;;4995165;28;20163;-86
2022/08/14 06:30:51;;;;;;;1.53;0.80;;;28.20;42.00;;;;;;4995165;28;20176;-86
2022/08/14 06:33:18;;;;;;;1.60;1.10;;;28.60;47.40;;;;;;4995465;28;20458;-85
2022/08/14 06:35:45;;;;;;;1.43;0.60;;;28.90;43.80;;;;;;4994827;28;20494;-86
2022/08/14 06:38:23;;;;;;;1.07;0.70;;;29.10;64.60;;;;;;4993803;28;20884;-86
2022/08/14 06:40:50;;;;;;;1.20;0.83;;;29.00;21.80;;;;;;4995052;28;20429;-87
2022/08/14 06:43:17;;;;;;;1.00;0.70;;;28.80;23.60;;;;;;4995252;28;20783;-83
2022/08/14 06:45:44;;;;;;;2.23;1.20;;;29.20;15.30;;;;;;4995014;28;20881;-85
2022/08/14 06:48:18;;;;;;;1.53;1.20;;;28.80;13.60;;;;;;4995291;28;20426;-84
2022/08/14 06:50:44;;;;;;;1.40;1.30;;;28.90;11.80;;;;;;4994504;28;20426;-85
2022/08/14 06:53:13;;;;;;;1.97;1.13;;;27.30;23.70;;;;;;4993514;28;20450;-84
2022/08/14 06:55:40;;;;;;;2.07;1.50;;;27.60;42.20;;;;;;4994653;28;20509;-84
2022/08/14 06:58:10;;;;;;;3.93;0.90;;;28.60;25.80;;;;;;4994659;28;20466;-86
2022/08/14 07:00:36;;;;;;;1.67;0.90;;;27.80;53.20;;;;;;4993580;28;20439;-87
2022/08/14 07:05:46;;;;;;;2.60;0.87;;;26.00;99.90;;;;;;4994068;28;20285;-90
2022/08/14 07:08:25;;;;;;;2.70;0.80;;;26.40;99.90;;;;;;4994635;28;20415;-90
2022/08/14 07:10:52;;;;;;;1.37;0.93;;;26.40;99.90;;;;;;4993765;28;20423;-90
2022/08/14 07:13:18;;;;;;;4.07;1.27;;;26.20;99.90;;;;;;4993698;28;20411;-90
2022/08/14 07:15:49;;;;;;;1.40;0.87;;;26.00;99.90;;;;;;4994680;28;20473;-90
2022/08/14 07:18:20;;;;;;;0.93;0.70;;;26.20;99.90;;;;;;4995105;28;20513;-91
2022/08/14 07:20:46;;;;;;;3.03;1.10;;;26.20;99.90;;;;;;4994418;28;20445;-91
2022/08/14 07:23:12;;;;;;;1.50;1.20;;;26.90;99.90;;;;;;4994566;28;20446;-90
2022/08/14 07:25:39;;;;;;;2.27;1.50;;;27.60;99.80;;;;;;4994490;28;20183;-90
2022/08/14 07:28:09;;;;;;;1.67;1.47;;;27.10;99.90;;;;;;4993802;28;20199;-89
2022/08/14 07:30:35;;;;;;;1.77;1.53;;;26.90;99.90;;;;;;4994511;28;20430;-87
2022/08/14 07:33:02;;;;;;;1.47;1.07;;;26.70;99.90;;;;;;4992896;28;20435;-87
2022/08/14 07:35:27;;;;;;;1.23;0.93;;;26.20;99.90;;;;;;4993681;28;20530;-88
2022/08/14 07:37:53;;;;;;;1.97;1.03;;;26.50;99.90;;;;;;4993914;28;20412;-88
2022/08/14 07:40:18;;;;;;;1.87;1.10;;;27.80;99.90;;;;;;4992386;28;20190;-87
2022/08/14 07:42:44;;;;;;;1.37;1.20;;;29.70;66.80;;;;;;4993583;28;20208;-88
2022/08/14 07:45:10;;;;;;;1.37;1.07;;;30.60;16.30;;;;;;4994107;28;20214;-90
2022/08/14 07:47:40;;;;;;;1.73;1.50;;;31.40;10.20;;;;;;4993845;28;20686;-88
2022/08/14 07:50:17;;;;;;;1.43;1.20;;;30.40;1.00;;;;;;4993798;28;20167;-93
2022/08/14 07:52:44;;;;;;;1.20;1.00;;;31.00;1.00;;;;;;4995599;28;20424;-89
2022/08/14 07:55:12;;;;;;;1.93;1.00;;;30.80;1.00;;;;;;4992610;28;20489;-88
2022/08/14 07:57:42;;;;;;;1.30;1.20;;;31.40;1.00;;;;;;4991611;28;20439;-86
2022/08/14 08:00:14;;;;;;;2.20;1.60;;;30.50;1.00;;;;;;4992471;28;20438;-86
2022/08/14 08:02:41;;;;;;;1.93;1.10;;;31.60;1.00;;;;;;4993763;28;20497;-86
2022/08/14 08:05:09;;;;;;;1.83;1.07;;;32.70;1.00;;;;;;4993239;28;20457;-87
2022/08/14 08:07:36;;;;;;;1.60;1.50;;;31.50;1.00;;;;;;4992963;28;20835;-87
2022/08/14 08:12:55;;;;;;;1.40;1.20;;;30.20;1.00;;;;;;4993658;28;20438;-86
2022/08/14 08:15:22;;;;;;;2.20;1.60;;;32.40;1.00;;;;;;4993548;28;20439;-87
2022/08/14 08:17:48;;;;;;;1.13;0.90;;;33.10;1.00;;;;;;4992162;28;20414;-88
2022/08/14 08:20:25;;;;;;;1.23;1.10;;;33.00;1.00;;;;;;4991207;28;21011;-87
2022/08/14 08:22:55;;;;;;;1.30;1.20;;;32.10;1.00;;;;;;4992243;28;20245;-87
2022/08/14 08:25:21;;;;;;;1.60;1.33;;;31.80;1.00;;;;;;4993414;28;20512;-86
2022/08/14 08:28:01;;;;;;;1.63;1.53;;;33.30;1.00;;;;;;4992171;28;20564;-87
2022/08/14 08:30:29;;;;;;;2.03;1.83;;;34.40;1.00;;;;;;4992408;28;20418;-88
2022/08/14 08:32:58;;;;;;;1.73;1.47;;;34.00;1.00;;;;;;4993953;28;20419;-86
2022/08/14 08:35:30;;;;;;;1.67;1.30;;;34.00;1.00;;;;;;4993101;28;20430;-87
2022/08/14 08:38:05;;;;;;;2.10;1.10;;;35.00;1.00;;;;;;4993417;28;20468;-89
2022/08/14 08:40:35;;;;;;;2.03;1.10;;;35.30;1.00;;;;;;4992127;28;20938;-87
2022/08/14 08:43:05;;;;;;;1.67;1.20;;;34.80;1.00;;;;;;4992062;28;20434;-88
2022/08/14 08:45:32;;;;;;;1.60;1.50;;;34.60;1.00;;;;;;4993287;28;20481;-87
2022/08/14 08:47:57;;;;;;;1.23;1.13;;;35.20;1.00;;;;;;4992007;28;20419;-87
2022/08/14 08:50:29;;;;;;;1.80;1.30;;;35.40;1.00;;;;;;4993022;28;20788;-90
2022/08/14 08:53:01;;;;;;;1.73;1.30;;;35.30;1.00;;;;;;4993974;28;20275;-87
2022/08/14 08:55:29;;;;;;;2.73;1.50;;;35.10;1.00;;;;;;4996907;28;20418;-87
2022/08/14 08:57:57;;;;;;;1.70;1.60;;;35.70;1.00;;;;;;4995609;28;20930;-88
2022/08/14 09:00:23;;;;;;;1.60;1.50;;;36.10;1.00;;;;;;4997591;28;20419;-87
2022/08/14 09:03:07;;;;;;;1.77;1.60;;;36.10;1.00;;;;;;4989066;28;20935;-89
2022/08/14 09:05:35;;;;;;;1.60;1.27;;;36.00;1.00;;;;;;4994742;28;20242;-87
2022/08/14 09:08:23;;;;;;;2.00;1.80;;;36.40;1.00;;;;;;4996600;28;20422;-89
2022/08/14 09:10:49;;;;;;;1.57;1.10;;;36.30;1.00;;;;;;4996467;28;20822;-88
2022/08/14 09:13:15;;;;;;;1.63;1.53;;;34.90;1.00;;;;;;4996580;28;20418;-89
2022/08/14 09:15:43;;;;;;;1.90;1.70;;;33.00;1.00;;;;;;4995309;28;20176;-89
2022/08/14 09:18:09;;;;;;;2.47;1.90;;;32.80;1.00;;;;;;4996606;28;20207;-87
2022/08/14 09:20:38;;;;;;;2.53;2.33;;;33.30;1.00;;;;;;4996024;28;20419;-88
2022/08/14 09:23:05;;;;;;;2.40;1.77;;;33.20;1.00;;;;;;4996101;28;20411;-88
2022/08/14 09:25:31;;;;;;;2.07;1.90;;;33.80;1.00;;;;;;4994982;28;20493;-90
2022/08/14 09:27:56;;;;;;;1.67;1.57;;;34.70;1.00;;;;;;4996311;28;20422;-88
2022/08/14 09:30:22;;;;;;;1.50;1.40;;;36.10;1.00;;;;;;4996325;28;20403;-91
2022/08/14 09:33:21;;;;;;;1.60;1.50;;;37.00;1.00;;;;;;4997526;28;20640;-89
2022/08/14 09:36:14;;;;;;;2.40;1.60;;;36.70;1.00;;;;;;4995734;28;20425;-89
2022/08/14 09:39:08;;;;;;;2.50;2.23;;;37.50;1.00;;;;;;4994274;28;20615;-91
2022/08/14 09:41:44;;;;;;;2.00;1.90;;;37.50;1.00;;;;;;4995139;28;20431;-90
2022/08/14 09:44:39;;;;;;;2.90;2.50;;;37.60;1.00;;;;;;4987252;28;20937;-89
2022/08/14 09:47:05;;;;;;;1.87;1.77;;;37.50;1.00;;;;;;5003391;28;20444;-93
2022/08/14 09:49:36;;;;;;;2.57;2.37;;;38.20;1.00;;;;;;5003516;28;20458;-92
2022/08/14 09:52:09;;;;;;;2.60;2.40;;;37.40;1.00;;;;;;5000562;28;20245;-90
2022/08/14 09:54:43;;;;;;;2.30;2.10;;;36.20;1.00;;;;;;4985346;28;20486;-95
2022/08/14 09:57:12;;;;;;;2.80;2.60;;;34.80;1.00;;;;;;4977962;28;20424;-89
2022/08/14 09:59:48;;;;;;;1.83;1.73;;;33.90;1.00;;;;;;4981063;28;20517;-88
2022/08/14 10:02:27;;;;;;;3.47;2.27;;;32.40;1.00;;;;;;4997849;28;20466;-91
2022/08/14 10:05:10;;;;;;;2.33;2.10;;;32.30;1.00;;;;;;4994696;28;20414;-91
2022/08/14 10:07:49;;;;;;;2.67;2.47;;;32.50;1.00;;;;;;4997867;28;20431;-91
2022/08/14 10:10:33;;;;;;;2.70;2.50;;;33.60;1.00;;;;;;4996840;28;20435;-89
2022/08/14 10:13:01;;;;;;;2.40;2.20;;;32.70;1.00;;;;;;5002476;28;20494;-95
2022/08/14 10:15:29;;;;;;;2.60;2.40;;;32.00;1.00;;;;;;5003048;28;20419;-88
2022/08/14 10:18:09;;;;;;;2.20;2.00;;;31.70;1.00;;;;;;5003082;28;20420;-90
2022/08/14 10:20:40;;;;;;;2.60;2.40;;;31.20;1.00;;;;;;4999749;28;20429;-87
2022/08/14 10:23:15;;;;;;;2.93;2.73;;;30.80;1.00;;;;;;4998580;28;20529;-93
2022/08/14 10:25:52;;;;;;;3.80;2.60;;;30.60;1.00;;;;;;4998877;28;20414;-86
2022/08/14 10:28:23;;;;;;;3.67;2.30;;;30.40;1.00;;;;;;4991663;28;20416;-94
2022/08/14 10:30:53;;;;;;;2.60;2.40;;;30.50;1.00;;;;;;4992313;28;20427;-93
2022/08/14 10:33:28;;;;;;;2.57;2.17;;;30.40;1.00;;;;;;4993982;28;20431;-92
2022/08/14 10:35:56;;;;;;;2.50;2.30;;;30.40;1.00;;;;;;4984840;28;20423;-90
2022/08/14 10:38:31;;;;;;;2.50;2.30;;;30.50;1.00;;;;;;4985698;28;20531;-89
2022/08/14 10:41:08;;;;;;;3.40;2.47;;;31.00;1.00;;;;;;4993216;28;20418;-89
2022/08/14 10:43:34;;;;;;;4.63;2.70;;;30.70;1.00;;;;;;4994088;28;20446;-91
2022/08/14 10:46:00;;;;;;;3.37;3.10;;;30.90;1.00;;;;;;4992548;28;20488;-87
2022/08/14 10:48:26;;;;;;;2.57;2.30;;;31.00;1.00;;;;;;4994589;28;20648;-88
2022/08/14 10:50:53;;;;;;;3.50;2.97;;;31.00;1.00;;;;;;4993434;28;20411;-90
2022/08/14 10:53:31;;;;;;;2.67;2.47;;;31.20;1.00;;;;;;4965189;28;20456;-91
2022/08/14 10:56:05;;;;;;;2.93;2.43;;;31.20;1.00;;;;;;4955082;28;20420;-88
2022/08/14 10:58:31;;;;;;;3.17;2.70;;;31.30;1.00;;;;;;4970124;28;21435;-86
2022/08/14 11:01:03;;;;;;;2.97;2.77;;;31.60;1.00;;;;;;4955014;28;20413;-89
2022/08/14 11:03:42;;;;;;;2.57;2.37;;;31.60;1.00;;;;;;4955059;28;20434;-90
2022/08/14 11:06:18;;;;;;;3.40;2.77;;;31.50;1.00;;;;;;4954529;28;20559;-92
2022/08/14 11:08:48;;;;;;;2.87;2.67;;;31.00;1.00;;;;;;4956034;28;20487;-88
2022/08/14 11:11:14;;;;;;;2.00;1.80;;;30.60;1.00;;;;;;4955295;28;20832;-88
2022/08/14 11:13:43;;;;;;;5.37;2.83;;;30.50;1.00;;;;;;4954997;28;20428;-87
2022/08/14 11:16:09;;;;;;;2.73;2.53;;;30.70;1.00;;;;;;4954721;28;20409;-89
2022/08/14 11:18:35;;;;;;;2.53;2.33;;;30.60;1.00;;;;;;4954178;28;20534;-90
2022/08/14 11:21:02;;;;;;;2.80;2.37;;;30.60;1.00;;;;;;4955124;28;20415;-90
2022/08/14 11:23:30;;;;;;;2.40;2.20;;;30.30;1.00;;;;;;4941153;28;20457;-88
2022/08/14 11:25:58;;;;;;;2.90;2.23;;;29.70;1.00;;;;;;4962652;28;20416;-91
2022/08/14 11:28:26;;;;;;;2.23;2.03;;;29.80;1.00;;;;;;4950392;28;20902;-90
2022/08/14 11:30:55;;;;;;;5.37;3.13;;;30.10;1.00;;;;;;4935060;29;20516;-90
2022/08/14 11:33:23;;;;;;;3.23;2.20;;;29.90;1.00;;;;;;4934869;29;20495;-92
2022/08/14 11:35:49;;;;;;;2.47;2.27;;;29.80;1.00;;;;;;4942954;29;20451;-91
2022/08/14 11:38:16;;;;;;;4.67;2.80;;;30.00;1.00;;;;;;4970679;28;20996;-92
2022/08/14 11:40:42;;;;;;;2.80;2.50;;;30.00;1.00;;;;;;4970519;28;20188;-91
2022/08/14 11:43:08;;;;;;;3.00;2.70;;;30.10;1.00;;;;;;4955334;28;20409;-94
2022/08/14 11:45:39;;;;;;;3.33;2.43;;;30.20;1.00;;;;;;4954620;28;20180;-93
2022/08/14 11:48:24;;;;;;;3.20;2.13;;;30.40;1.00;;;;;;4955332;28;20431;-92
2022/08/14 11:50:55;;;;;;;2.97;2.67;;;30.90;1.00;;;;;;4953899;28;20429;-88
2022/08/14 11:53:31;;;;;;;2.90;2.27;;;30.80;1.00;;;;;;4954624;28;20407;-88
2022/08/14 11:56:03;;;;;;;2.90;2.47;;;30.70;1.00;;;;;;4955295;28;20424;-93
2022/08/14 11:58:34;;;;;;;2.43;2.23;;;30.80;1.00;;;;;;4970517;28;20563;-90
2022/08/14 12:01:05;;;;;;;5.50;3.00;;;30.70;1.00;;;;;;4970583;28;21001;-94
2022/08/14 12:03:40;;;;;;;2.37;2.20;;;30.70;1.00;;;;;;4971341;28;20933;-91
2022/08/14 12:06:16;;;;;;;2.80;2.60;;;30.70;1.00;;;;;;4971235;28;20460;-91
2022/08/14 12:08:42;;;;;;;2.60;2.17;;;30.60;1.00;;;;;;4976700;28;20420;-91
2022/08/14 12:11:13;;;;;;;2.33;2.13;;;30.90;1.00;;;;;;4962113;28;20461;-93
2022/08/14 12:13:43;;;;;;;4.40;3.00;;;30.90;1.00;;;;;;4981942;28;20416;-91
2022/08/14 12:16:12;;;;;;;3.20;3.00;;;31.00;1.00;;;;;;4971815;28;20925;-91
2022/08/14 12:18:43;;;;;;;3.30;3.03;;;31.30;1.00;;;;;;4955265;28;20983;-93
2022/08/14 12:21:29;;;;;;;3.13;2.90;;;31.50;1.00;;;;;;4955581;28;20457;-88
2022/08/14 12:24:13;;;;;;;2.10;1.90;;;31.20;1.00;;;;;;4967318;28;20938;-93
2022/08/14 12:26:41;;;;;;;3.43;3.13;;;31.40;1.00;;;;;;4972919;28;20433;-92
2022/08/14 12:29:14;;;;;;;3.60;3.30;;;31.10;1.00;;;;;;4974940;28;20487;-90
2022/08/14 12:31:42;;;;;;;3.43;3.13;;;31.30;1.00;;;;;;4975222;28;20424;-92
2022/08/14 12:34:08;;;;;;;3.10;2.57;;;31.40;1.00;;;;;;4976535;28;20460;-92
2022/08/14 12:36:34;;;;;;;3.40;3.10;;;31.90;1.00;;;;;;4971749;28;20455;-90
2022/08/14 12:39:03;;;;;;;3.57;2.97;;;32.00;1.00;;;;;;4974776;29;22130;-90
2022/08/14 12:41:34;;;;;;;5.53;3.13;;;32.40;1.00;;;;;;4976905;28;20456;-90
2022/08/14 12:44:02;;;;;;;2.93;2.73;;;33.30;1.00;;;;;;4973878;28;20424;-92
2022/08/14 12:46:28;;;;;;;3.90;3.23;;;33.90;1.00;;;;;;4975279;28;21374;-93
2022/08/14 12:48:54;;;;;;;2.93;2.70;;;34.00;1.00;;;;;;4959920;28;20432;-89
2022/08/14 12:51:24;;;;;;;3.23;3.03;;;34.30;1.00;;;;;;4977361;28;20173;-92
2022/08/14 12:53:52;;;;;;;3.43;2.97;;;34.30;1.00;;;;;;4973881;28;20938;-88
2022/08/14 12:56:19;;;;;;;2.60;2.23;;;34.70;1.00;;;;;;4972821;28;20423;-91
2022/08/14 12:58:56;;;;;;;2.77;2.57;;;34.60;1.00;;;;;;4973168;28;20472;-91
2022/08/14 13:01:30;;;;;;;3.77;3.57;;;34.40;1.00;;;;;;4973259;28;20424;-93
2022/08/14 13:04:06;;;;;;;4.40;3.07;;;34.80;1.00;;;;;;4957724;28;20423;-84
2022/08/14 13:06:35;;;;;;;3.53;3.30;;;35.90;1.00;;;;;;4956867;28;20458;-85
2022/08/14 13:09:03;;;;;;;4.30;3.90;;;36.50;1.00;;;;;;4957546;28;20427;-85
2022/08/14 13:11:36;;;;;;;3.60;3.40;;;36.60;1.00;;;;;;4957470;28;20756;-83
2022/08/14 13:14:02;;;;;;;3.90;3.63;;;36.00;1.00;;;;;;4957234;28;20416;-83
2022/08/14 13:16:28;;;;;;;4.13;3.83;;;36.30;1.00;;;;;;4956342;28;20995;-85
2022/08/14 13:18:59;;;;;;;3.00;2.70;;;36.40;1.00;;;;;;4957171;28;20471;-85
2022/08/14 13:21:26;;;;;;;5.23;3.33;;;35.90;1.00;;;;;;4957522;28;20239;-85